Saint-Moise, Canada
Current Conditions -  °F | °C
As of 9:00 AM on Friday 24 Oct 2014 (Local Time) from CYYY Reporting Station
Broken Clouds Broken Clouds  
Wind Chill: 33°   Ceiling: 2000
Heat Index: 39°   Visibility: 30mi
Dew Point: 37°   Wind: 9mph
Humidity: 93%   Direction: 50°NE
Pressure: 29.95"   Gusts: NA
Location:  48.53°N, 67.85°W
Report Text: CYYY 241300Z 05008KT 30SM BKN020 BKN060 04/03 A2995 RMK SC5SC1 SLP145
Loading
Personal Weather Stations






























Interactive Weather Map
Tropical Storm Tracking
New forecast layout! Learn more

10-Day Weather Forecast

Advertisements
Track Severe Weather on mobile